Ellen Gowan, Pennsylvania
Current Conditions -  °F | °C
As of 3:55 PM on Thursday 20 Nov 2014 (Local Time) from KHZL Reporting Station
Clear Clear  
Wind Chill: 23°   Ceiling: Unl
Heat Index: 32°   Visibility: 10mi
Dew Point: 14°   Wind: 13mph
Humidity: 47%   Direction: 260°W
Pressure: 29.87"   Gusts: 18mph
Location:  40.8208°N, 76.1672°W
Report Text: KHZL 202055Z AUTO 26011G16KT 230V310 10SM CLR 00/M10 A2987 RMK AO2
Loading
Personal Weather Stations






























Interactive Weather Map New forecast layout! Learn more

10-Day Weather Forecast

Advertisements
Track Severe Weather on mobile